sensor_id;sensor_type;location;lat;lon;timestamp;pressure;altitude;pressure_sealevel;temperature;humidity
61628;BME280;55193;52.102;5.242;2023-07-29T00:05:32;100660.0;;;19.5;100.0
61628;BME280;55193;52.102;5.242;2023-07-29T00:07:08;100651.0;;;19.45;100.0
61628;BME280;55193;52.102;5.242;2023-07-29T00:18:24;100645.0;;;19.23;100.0
61628;BME280;55193;52.102;5.242;2023-07-29T01:08:31;100614.0;;;19.3;100.0
61628;BME280;55193;52.102;5.242;2023-07-29T03:00:49;100575.0;;;19.59;100.0
61628;BME280;55193;52.102;5.242;2023-07-29T03:13:39;100549.0;;;19.59;99.44
61628;BME280;55193;52.102;5.242;2023-07-29T03:26:29;100563.0;;;19.61;99.13
61628;BME280;55193;52.102;5.242;2023-07-29T05:12:27;100593.0;;;19.63;93.18
61628;BME280;55193;52.102;5.242;2023-07-29T05:46:07;100603.0;;;19.97;93.0
61628;BME280;55193;52.102;5.242;2023-07-29T05:49:20;100592.0;;;19.87;93.26
61628;BME280;55193;52.102;5.242;2023-07-29T06:00:34;100601.0;;;20.25;92.81
61628;BME280;55193;52.102;5.242;2023-07-29T06:06:58;100595.0;;;20.34;93.36
61628;BME280;55193;52.102;5.242;2023-07-29T06:15:02;100588.0;;;20.55;91.92
61628;BME280;55193;52.102;5.242;2023-07-29T06:18:14;100585.0;;;20.65;91.54
61628;BME280;55193;52.102;5.242;2023-07-29T06:31:04;100603.0;;;20.73;91.0
61628;BME280;55193;52.102;5.242;2023-07-29T06:35:54;100612.0;;;20.85;91.15
61628;BME280;55193;52.102;5.242;2023-07-29T06:40:42;100612.0;;;20.89;90.83
61628;BME280;55193;52.102;5.242;2023-07-29T06:45:30;100611.0;;;21.07;91.33
61628;BME280;55193;52.102;5.242;2023-07-29T06:47:06;100608.0;;;21.13;91.04
61628;BME280;55193;52.102;5.242;2023-07-29T06:58:19;100607.0;;;21.16;90.7
61628;BME280;55193;52.102;5.242;2023-07-29T06:59:57;100606.0;;;21.16;90.49
61628;BME280;55193;52.102;5.242;2023-07-29T07:27:14;100617.0;;;21.17;90.37
61628;BME280;55193;52.102;5.242;2023-07-29T07:57:43;100627.0;;;21.99;88.86
61628;BME280;55193;52.102;5.242;2023-07-29T08:02:36;100639.0;;;22.12;86.78
61628;BME280;55193;52.102;5.242;2023-07-29T08:04:13;100636.0;;;22.05;86.99
61628;BME280;55193;52.102;5.242;2023-07-29T08:07:25;100638.0;;;22.14;86.45
61628;BME280;55193;52.102;5.242;2023-07-29T08:09:01;100632.0;;;22.12;85.79
61628;BME280;55193;52.102;5.242;2023-07-29T08:10:37;100630.0;;;22.0;85.58
61628;BME280;55193;52.102;5.242;2023-07-29T08:12:13;100627.0;;;22.15;86.72
61628;BME280;55193;52.102;5.242;2023-07-29T08:15:25;100627.0;;;22.25;85.42
61628;BME280;55193;52.102;5.242;2023-07-29T08:17:02;100628.0;;;22.21;85.35
61628;BME280;55193;52.102;5.242;2023-07-29T08:18:38;100630.0;;;22.09;85.99
61628;BME280;55193;52.102;5.242;2023-07-29T08:25:04;100633.0;;;22.04;86.74
61628;BME280;55193;52.102;5.242;2023-07-29T08:29:53;100636.0;;;21.93;86.75
61628;BME280;55193;52.102;5.242;2023-07-29T08:31:30;100643.0;;;21.99;86.52
61628;BME280;55193;52.102;5.242;2023-07-29T08:36:18;100644.0;;;21.99;85.5
61628;BME280;55193;52.102;5.242;2023-07-29T08:39:30;100642.0;;;21.91;86.19
61628;BME280;55193;52.102;5.242;2023-07-29T08:42:53;100651.0;;;21.92;85.91
61628;BME280;55193;52.102;5.242;2023-07-29T08:44:40;100643.0;;;21.74;85.54
61628;BME280;55193;52.102;5.242;2023-07-29T08:46:16;100650.0;;;21.73;86.2
61628;BME280;55193;52.102;5.242;2023-07-29T08:52:49;100648.0;;;21.81;86.98
61628;BME280;55193;52.102;5.242;2023-07-29T08:59:14;100647.0;;;21.96;86.05
61628;BME280;55193;52.102;5.242;2023-07-29T09:00:51;100644.0;;;22.2;85.28
61628;BME280;55193;52.102;5.242;2023-07-29T09:02:28;100638.0;;;22.32;84.35
61628;BME280;55193;52.102;5.242;2023-07-29T09:05:41;100640.0;;;22.48;84.07
61628;BME280;55193;52.102;5.242;2023-07-29T09:07:17;100635.0;;;22.63;83.82
61628;BME280;55193;52.102;5.242;2023-07-29T09:08:54;100636.0;;;22.69;82.89
61628;BME280;55193;52.102;5.242;2023-07-29T09:12:11;100638.0;;;22.74;82.39
61628;BME280;55193;52.102;5.242;2023-07-29T09:13:47;100640.0;;;22.85;82.39
61628;BME280;55193;52.102;5.242;2023-07-29T09:15:27;100646.0;;;22.84;82.79
61628;BME280;55193;52.102;5.242;2023-07-29T09:17:06;100639.0;;;22.86;81.98
61628;BME280;55193;52.102;5.242;2023-07-29T09:22:00;100649.0;;;22.76;81.13
61628;BME280;55193;52.102;5.242;2023-07-29T09:23:40;100663.0;;;22.63;81.88
61628;BME280;55193;52.102;5.242;2023-07-29T09:26:59;100648.0;;;22.57;84.73
61628;BME280;55193;52.102;5.242;2023-07-29T09:28:37;100655.0;;;22.51;86.28
61628;BME280;55193;52.102;5.242;2023-07-29T09:30:15;100655.0;;;22.48;87.83
61628;BME280;55193;52.102;5.242;2023-07-29T09:31:52;100648.0;;;22.41;87.81
61628;BME280;55193;52.102;5.242;2023-07-29T09:35:09;100647.0;;;22.43;87.58
61628;BME280;55193;52.102;5.242;2023-07-29T09:36:46;100646.0;;;22.42;87.16
61628;BME280;55193;52.102;5.242;2023-07-29T09:38:26;100650.0;;;22.47;87.74
61628;BME280;55193;52.102;5.242;2023-07-29T09:49:45;100664.0;;;21.73;96.63
61628;BME280;55193;52.102;5.242;2023-07-29T09:51:21;100656.0;;;21.48;98.32
61628;BME280;55193;52.102;5.242;2023-07-29T09:52:57;100657.0;;;21.27;100.0
61628;BME280;55193;52.102;5.242;2023-07-29T09:56:12;100653.0;;;21.13;100.0
61628;BME280;55193;52.102;5.242;2023-07-29T10:04:25;100644.0;;;21.28;100.0
61628;BME280;55193;52.102;5.242;2023-07-29T10:06:03;100647.0;;;21.29;100.0
61628;BME280;55193;52.102;5.242;2023-07-29T10:07:40;100648.0;;;21.43;100.0
61628;BME280;55193;52.102;5.242;2023-07-29T10:10:54;100658.0;;;21.31;100.0
61628;BME280;55193;52.102;5.242;2023-07-29T10:14:08;100650.0;;;21.49;100.0
61628;BME280;55193;52.102;5.242;2023-07-29T10:15:45;100657.0;;;21.5;100.0
61628;BME280;55193;52.102;5.242;2023-07-29T10:22:20;100656.0;;;21.65;100.0
61628;BME280;55193;52.102;5.242;2023-07-29T10:24:01;100660.0;;;21.59;100.0
61628;BME280;55193;52.102;5.242;2023-07-29T10:35:38;100677.0;;;21.73;100.0
61628;BME280;55193;52.102;5.242;2023-07-29T10:37:14;100671.0;;;21.76;100.0
61628;BME280;55193;52.102;5.242;2023-07-29T10:42:21;100665.0;;;21.86;100.0
61628;BME280;55193;52.102;5.242;2023-07-29T10:43:57;100655.0;;;21.68;100.0
61628;BME280;55193;52.102;5.242;2023-07-29T10:45:38;100655.0;;;21.59;100.0
61628;BME280;55193;52.102;5.242;2023-07-29T10:50:31;100657.0;;;21.66;100.0
61628;BME280;55193;52.102;5.242;2023-07-29T10:52:07;100657.0;;;21.67;100.0
61628;BME280;55193;52.102;5.242;2023-07-29T10:53:43;100658.0;;;21.66;100.0
61628;BME280;55193;52.102;5.242;2023-07-29T10:58:43;100663.0;;;21.55;100.0
61628;BME280;55193;52.102;5.242;2023-07-29T11:01:57;100668.0;;;21.72;100.0
61628;BME280;55193;52.102;5.242;2023-07-29T11:05:17;100668.0;;;21.56;100.0
61628;BME280;55193;52.102;5.242;2023-07-29T11:09:39;100673.0;;;21.5;100.0
61628;BME280;55193;52.102;5.242;2023-07-29T11:17:43;100681.0;;;21.64;100.0
61628;BME280;55193;52.102;5.242;2023-07-29T11:19:21;100680.0;;;21.46;100.0
61628;BME280;55193;52.102;5.242;2023-07-29T11:20:58;100680.0;;;21.41;100.0
61628;BME280;55193;52.102;5.242;2023-07-29T11:25:54;100681.0;;;21.23;100.0
61628;BME280;55193;52.102;5.242;2023-07-29T11:42:00;100669.0;;;21.02;100.0
61628;BME280;55193;52.102;5.242;2023-07-29T11:53:18;100662.0;;;21.59;100.0
61628;BME280;55193;52.102;5.242;2023-07-29T12:01:22;100665.0;;;22.51;100.0
61628;BME280;55193;52.102;5.242;2023-07-29T12:02:59;100665.0;;;22.65;100.0
61628;BME280;55193;52.102;5.242;2023-07-29T12:04:36;100666.0;;;22.56;100.0
61628;BME280;55193;52.102;5.242;2023-07-29T12:14:25;100657.0;;;22.8;100.0
61628;BME280;55193;52.102;5.242;2023-07-29T12:17:40;100662.0;;;22.75;98.06
61628;BME280;55193;52.102;5.242;2023-07-29T12:19:16;100659.0;;;22.7;98.13
61628;BME280;55193;52.102;5.242;2023-07-29T12:25:41;100662.0;;;22.67;97.47
61628;BME280;55193;52.102;5.242;2023-07-29T12:28:53;100656.0;;;22.62;97.06
61628;BME280;55193;52.102;5.242;2023-07-29T12:33:43;100650.0;;;22.58;96.59
61628;BME280;55193;52.102;5.242;2023-07-29T12:43:36;100651.0;;;22.71;96.62
61628;BME280;55193;52.102;5.242;2023-07-29T12:46:51;100648.0;;;22.8;94.83
61628;BME280;55193;52.102;5.242;2023-07-29T12:48:28;100652.0;;;22.86;94.63
61628;BME280;55193;52.102;5.242;2023-07-29T12:51:41;100650.0;;;23.01;93.56
61628;BME280;55193;52.102;5.242;2023-07-29T12:53:17;100653.0;;;23.06;92.95
61628;BME280;55193;52.102;5.242;2023-07-29T12:54:53;100650.0;;;22.87;92.39
61628;BME280;55193;52.102;5.242;2023-07-29T12:58:05;100638.0;;;23.0;91.7
61628;BME280;55193;52.102;5.242;2023-07-29T12:59:41;100648.0;;;22.87;91.29
61628;BME280;55193;52.102;5.242;2023-07-29T13:01:17;100649.0;;;22.99;92.4
61628;BME280;55193;52.102;5.242;2023-07-29T13:04:29;100646.0;;;23.04;93.95
61628;BME280;55193;52.102;5.242;2023-07-29T13:06:06;100646.0;;;23.06;91.81
61628;BME280;55193;52.102;5.242;2023-07-29T13:09:19;100653.0;;;23.02;90.01
61628;BME280;55193;52.102;5.242;2023-07-29T13:12:30;100650.0;;;23.19;90.71
61628;BME280;55193;52.102;5.242;2023-07-29T13:15:43;100642.0;;;23.32;88.05
61628;BME280;55193;52.102;5.242;2023-07-29T13:22:09;100646.0;;;23.37;84.65
61628;BME280;55193;52.102;5.242;2023-07-29T13:25:21;100642.0;;;23.42;85.75
61628;BME280;55193;52.102;5.242;2023-07-29T13:26:57;100645.0;;;23.29;85.84
61628;BME280;55193;52.102;5.242;2023-07-29T13:28:33;100639.0;;;23.44;87.37
61628;BME280;55193;52.102;5.242;2023-07-29T13:30:10;100645.0;;;23.5;86.33
61628;BME280;55193;52.102;5.242;2023-07-29T13:39:46;100649.0;;;23.51;84.5
61628;BME280;55193;52.102;5.242;2023-07-29T13:41:22;100648.0;;;23.53;82.99
61628;BME280;55193;52.102;5.242;2023-07-29T13:51:01;100646.0;;;24.21;83.47
61628;BME280;55193;52.102;5.242;2023-07-29T13:55:49;100651.0;;;24.36;82.78
61628;BME280;55193;52.102;5.242;2023-07-29T13:57:26;100655.0;;;24.5;79.41
61628;BME280;55193;52.102;5.242;2023-07-29T14:00:38;100653.0;;;24.32;78.11
61628;BME280;55193;52.102;5.242;2023-07-29T14:02:14;100655.0;;;24.33;77.31
61628;BME280;55193;52.102;5.242;2023-07-29T14:03:50;100649.0;;;24.32;78.97
61628;BME280;55193;52.102;5.242;2023-07-29T14:07:03;100646.0;;;24.51;79.36
61628;BME280;55193;52.102;5.242;2023-07-29T14:08:40;100655.0;;;24.61;77.94
61628;BME280;55193;52.102;5.242;2023-07-29T14:10:16;100644.0;;;24.69;77.44
61628;BME280;55193;52.102;5.242;2023-07-29T14:13:30;100647.0;;;24.82;78.16
61628;BME280;55193;52.102;5.242;2023-07-29T14:15:07;100649.0;;;24.79;76.69
61628;BME280;55193;52.102;5.242;2023-07-29T14:16:43;100645.0;;;24.74;76.84
61628;BME280;55193;52.102;5.242;2023-07-29T14:18:19;100649.0;;;24.68;76.55
61628;BME280;55193;52.102;5.242;2023-07-29T14:21:31;100656.0;;;24.77;74.14
61628;BME280;55193;52.102;5.242;2023-07-29T14:23:08;100657.0;;;24.75;74.27
61628;BME280;55193;52.102;5.242;2023-07-29T14:24:44;100662.0;;;24.81;72.72
61628;BME280;55193;52.102;5.242;2023-07-29T14:27:56;100658.0;;;24.81;72.61
61628;BME280;55193;52.102;5.242;2023-07-29T14:29:32;100656.0;;;24.77;71.42
61628;BME280;55193;52.102;5.242;2023-07-29T14:34:21;100650.0;;;24.68;71.16
61628;BME280;55193;52.102;5.242;2023-07-29T14:35:57;100644.0;;;24.69;72.59
61628;BME280;55193;52.102;5.242;2023-07-29T14:42:24;100642.0;;;24.51;68.45
61628;BME280;55193;52.102;5.242;2023-07-29T14:45:37;100646.0;;;24.58;69.3
61628;BME280;55193;52.102;5.242;2023-07-29T14:50:26;100650.0;;;24.42;69.75
61628;BME280;55193;52.102;5.242;2023-07-29T14:55:16;100655.0;;;24.38;72.11
61628;BME280;55193;52.102;5.242;2023-07-29T14:56:52;100655.0;;;24.16;70.0
61628;BME280;55193;52.102;5.242;2023-07-29T14:58:28;100657.0;;;24.35;71.31
61628;BME280;55193;52.102;5.242;2023-07-29T15:04:54;100656.0;;;24.09;72.24
61628;BME280;55193;52.102;5.242;2023-07-29T15:06:30;100653.0;;;24.17;71.73
61628;BME280;55193;52.102;5.242;2023-07-29T15:16:07;100639.0;;;24.43;71.98
61628;BME280;55193;52.102;5.242;2023-07-29T15:17:43;100646.0;;;24.43;71.16
61628;BME280;55193;52.102;5.242;2023-07-29T15:19:19;100639.0;;;24.54;70.33
61628;BME280;55193;52.102;5.242;2023-07-29T15:22:32;100647.0;;;24.37;69.05
61628;BME280;55193;52.102;5.242;2023-07-29T15:25:44;100641.0;;;24.58;69.49
61628;BME280;55193;52.102;5.242;2023-07-29T15:30:35;100641.0;;;24.71;67.88
61628;BME280;55193;52.102;5.242;2023-07-29T15:32:11;100640.0;;;24.79;67.19
61628;BME280;55193;52.102;5.242;2023-07-29T15:33:48;100630.0;;;24.73;65.88
61628;BME280;55193;52.102;5.242;2023-07-29T15:37:01;100627.0;;;24.54;66.69
61628;BME280;55193;52.102;5.242;2023-07-29T15:38:38;100630.0;;;24.75;66.55
61628;BME280;55193;52.102;5.242;2023-07-29T15:40:14;100641.0;;;24.69;68.58
61628;BME280;55193;52.102;5.242;2023-07-29T15:43:27;100638.0;;;24.74;68.0
61628;BME280;55193;52.102;5.242;2023-07-29T15:46:42;100646.0;;;24.54;68.13
61628;BME280;55193;52.102;5.242;2023-07-29T15:48:19;100640.0;;;24.57;68.31
61628;BME280;55193;52.102;5.242;2023-07-29T15:51:31;100638.0;;;24.66;67.98
61628;BME280;55193;52.102;5.242;2023-07-29T15:53:07;100634.0;;;24.8;67.72
61628;BME280;55193;52.102;5.242;2023-07-29T15:54:43;100637.0;;;24.83;67.05
61628;BME280;55193;52.102;5.242;2023-07-29T15:57:55;100638.0;;;24.79;66.47
61628;BME280;55193;52.102;5.242;2023-07-29T15:59:31;100649.0;;;24.94;66.74
61628;BME280;55193;52.102;5.242;2023-07-29T16:04:20;100642.0;;;24.75;66.66
61628;BME280;55193;52.102;5.242;2023-07-29T16:05:56;100641.0;;;24.79;67.47
61628;BME280;55193;52.102;5.242;2023-07-29T16:07:32;100636.0;;;24.78;68.22
61628;BME280;55193;52.102;5.242;2023-07-29T16:09:08;100634.0;;;24.94;67.94
61628;BME280;55193;52.102;5.242;2023-07-29T16:12:20;100631.0;;;24.79;69.28
61628;BME280;55193;52.102;5.242;2023-07-29T16:13:56;100635.0;;;24.77;70.52
61628;BME280;55193;52.102;5.242;2023-07-29T16:15:33;100636.0;;;24.63;72.05
61628;BME280;55193;52.102;5.242;2023-07-29T16:18:45;100631.0;;;24.6;72.94
61628;BME280;55193;52.102;5.242;2023-07-29T16:20:21;100634.0;;;24.55;72.49
61628;BME280;55193;52.102;5.242;2023-07-29T16:25:10;100637.0;;;24.43;72.19
61628;BME280;55193;52.102;5.242;2023-07-29T16:26:46;100636.0;;;24.45;72.87
61628;BME280;55193;52.102;5.242;2023-07-29T16:28:22;100636.0;;;24.48;72.19
61628;BME280;55193;52.102;5.242;2023-07-29T16:33:10;100635.0;;;23.97;73.94
61628;BME280;55193;52.102;5.242;2023-07-29T16:36:22;100639.0;;;24.08;73.86
61628;BME280;55193;52.102;5.242;2023-07-29T16:39:35;100637.0;;;24.11;75.44
61628;BME280;55193;52.102;5.242;2023-07-29T16:41:12;100635.0;;;24.12;73.55
61628;BME280;55193;52.102;5.242;2023-07-29T16:42:48;100630.0;;;24.36;74.17
61628;BME280;55193;52.102;5.242;2023-07-29T16:46:00;100633.0;;;24.36;73.74
61628;BME280;55193;52.102;5.242;2023-07-29T16:47:36;100635.0;;;24.41;73.22
61628;BME280;55193;52.102;5.242;2023-07-29T16:52:24;100634.0;;;24.47;72.22
61628;BME280;55193;52.102;5.242;2023-07-29T16:54:01;100631.0;;;24.5;71.81
61628;BME280;55193;52.102;5.242;2023-07-29T16:55:38;100632.0;;;24.58;71.33
61628;BME280;55193;52.102;5.242;2023-07-29T16:57:14;100632.0;;;24.44;72.41
61628;BME280;55193;52.102;5.242;2023-07-29T17:02:03;100626.0;;;24.32;72.97
61628;BME280;55193;52.102;5.242;2023-07-29T17:06:51;100622.0;;;24.06;75.59
61628;BME280;55193;52.102;5.242;2023-07-29T17:13:16;100624.0;;;24.28;74.7
61628;BME280;55193;52.102;5.242;2023-07-29T17:14:52;100630.0;;;24.39;75.16
61628;BME280;55193;52.102;5.242;2023-07-29T17:16:29;100633.0;;;24.26;74.37
61628;BME280;55193;52.102;5.242;2023-07-29T17:22:53;100634.0;;;24.03;75.78
61628;BME280;55193;52.102;5.242;2023-07-29T17:27:41;100634.0;;;24.1;76.63
61628;BME280;55193;52.102;5.242;2023-07-29T17:30:54;100639.0;;;24.31;76.16
61628;BME280;55193;52.102;5.242;2023-07-29T17:35:42;100640.0;;;24.21;77.0
61628;BME280;55193;52.102;5.242;2023-07-29T17:40:30;100643.0;;;24.01;77.8
61628;BME280;55193;52.102;5.242;2023-07-29T17:42:07;100644.0;;;24.0;77.58
61628;BME280;55193;52.102;5.242;2023-07-29T17:43:43;100641.0;;;24.11;78.48
61628;BME280;55193;52.102;5.242;2023-07-29T17:48:31;100653.0;;;24.06;76.53
61628;BME280;55193;52.102;5.242;2023-07-29T17:50:07;100659.0;;;23.96;70.45
61628;BME280;55193;52.102;5.242;2023-07-29T17:51:43;100656.0;;;23.78;68.97
61628;BME280;55193;52.102;5.242;2023-07-29T17:54:56;100653.0;;;23.8;68.55
61628;BME280;55193;52.102;5.242;2023-07-29T17:56:32;100667.0;;;23.88;67.14
61628;BME280;55193;52.102;5.242;2023-07-29T17:58:08;100655.0;;;23.62;64.22
61628;BME280;55193;52.102;5.242;2023-07-29T18:04:33;100667.0;;;23.53;63.6
61628;BME280;55193;52.102;5.242;2023-07-29T18:12:37;100673.0;;;23.29;64.6
61628;BME280;55193;52.102;5.242;2023-07-29T18:15:50;100677.0;;;23.29;61.01
61628;BME280;55193;52.102;5.242;2023-07-29T18:17:26;100683.0;;;23.2;64.27
61628;BME280;55193;52.102;5.242;2023-07-29T18:19:02;100686.0;;;23.2;62.95
61628;BME280;55193;52.102;5.242;2023-07-29T18:28:40;100684.0;;;23.17;62.06
61628;BME280;55193;52.102;5.242;2023-07-29T18:30:17;100680.0;;;22.98;62.2
61628;BME280;55193;52.102;5.242;2023-07-29T18:31:53;100684.0;;;22.86;62.05
61628;BME280;55193;52.102;5.242;2023-07-29T18:33:30;100687.0;;;23.0;61.38
61628;BME280;55193;52.102;5.242;2023-07-29T18:36:43;100690.0;;;22.85;61.59
61628;BME280;55193;52.102;5.242;2023-07-29T18:38:19;100690.0;;;22.73;63.33
61628;BME280;55193;52.102;5.242;2023-07-29T18:39:55;100687.0;;;22.69;62.5
61628;BME280;55193;52.102;5.242;2023-07-29T18:44:44;100688.0;;;22.52;63.57
61628;BME280;55193;52.102;5.242;2023-07-29T18:46:21;100690.0;;;22.48;64.58
61628;BME280;55193;52.102;5.242;2023-07-29T18:49:33;100692.0;;;22.44;64.7
61628;BME280;55193;52.102;5.242;2023-07-29T18:51:09;100690.0;;;22.48;64.19
61628;BME280;55193;52.102;5.242;2023-07-29T18:55:57;100700.0;;;22.33;64.88
61628;BME280;55193;52.102;5.242;2023-07-29T19:00:46;100709.0;;;22.12;64.28
61628;BME280;55193;52.102;5.242;2023-07-29T19:03:58;100713.0;;;22.22;65.58
61628;BME280;55193;52.102;5.242;2023-07-29T19:05:35;100712.0;;;22.22;65.83
61628;BME280;55193;52.102;5.242;2023-07-29T19:10:24;100710.0;;;22.06;64.69
61628;BME280;55193;52.102;5.242;2023-07-29T19:12:00;100716.0;;;21.89;68.38
61628;BME280;55193;52.102;5.242;2023-07-29T19:18:24;100731.0;;;21.9;68.55
61628;BME280;55193;52.102;5.242;2023-07-29T19:21:37;100724.0;;;21.87;69.22
61628;BME280;55193;52.102;5.242;2023-07-29T19:24:50;100730.0;;;21.82;67.98
61628;BME280;55193;52.102;5.242;2023-07-29T19:28:02;100738.0;;;21.71;69.63
61628;BME280;55193;52.102;5.242;2023-07-29T19:37:40;100743.0;;;21.74;68.99
61628;BME280;55193;52.102;5.242;2023-07-29T19:39:16;100741.0;;;21.61;69.92
61628;BME280;55193;52.102;5.242;2023-07-29T19:48:54;100742.0;;;21.3;71.56
61628;BME280;55193;52.102;5.242;2023-07-29T19:55:20;100747.0;;;21.28;71.08
61628;BME280;55193;52.102;5.242;2023-07-29T20:00:09;100748.0;;;21.48;69.91
61628;BME280;55193;52.102;5.242;2023-07-29T20:27:27;100758.0;;;20.98;72.2
61628;BME280;55193;52.102;5.242;2023-07-29T20:29:03;100760.0;;;21.08;71.33
61628;BME280;55193;52.102;5.242;2023-07-29T20:30:40;100755.0;;;21.09;70.92
61628;BME280;55193;52.102;5.242;2023-07-29T20:37:05;100762.0;;;21.01;72.36
61628;BME280;55193;52.102;5.242;2023-07-29T20:43:29;100759.0;;;20.92;71.13
61628;BME280;55193;52.102;5.242;2023-07-29T21:22:02;100765.0;;;20.53;72.52
61628;BME280;55193;52.102;5.242;2023-07-29T21:31:39;100762.0;;;20.46;72.3
61628;BME280;55193;52.102;5.242;2023-07-29T21:36:28;100763.0;;;20.45;73.09
61628;BME280;55193;52.102;5.242;2023-07-29T21:44:28;100758.0;;;20.47;72.33
61628;BME280;55193;52.102;5.242;2023-07-29T21:55:42;100760.0;;;20.27;73.87
61628;BME280;55193;52.102;5.242;2023-07-29T21:57:18;100758.0;;;20.34;73.83
61628;BME280;55193;52.102;5.242;2023-07-29T22:03:44;100751.0;;;20.2;73.61
61628;BME280;55193;52.102;5.242;2023-07-29T22:05:20;100755.0;;;20.27;73.89
61628;BME280;55193;52.102;5.242;2023-07-29T22:06:56;100759.0;;;20.23;73.8
61628;BME280;55193;52.102;5.242;2023-07-29T22:32:35;100751.0;;;20.11;74.19
61628;BME280;55193;52.102;5.242;2023-07-29T22:38:59;100745.0;;;19.93;74.72
61628;BME280;55193;52.102;5.242;2023-07-29T22:47:00;100750.0;;;20.05;74.64
61628;BME280;55193;52.102;5.242;2023-07-29T22:59:49;100771.0;;;20.02;74.86
61628;BME280;55193;52.102;5.242;2023-07-29T23:59:18;100803.0;;;19.04;79.52
